createdAt,value
2024-01-11T00:01:13.646Z,99555.75
2024-01-11T00:03:42.940Z,99553.31
2024-01-11T00:06:12.821Z,99560.34
2024-01-11T00:08:42.183Z,99550.88
2024-01-11T00:11:15.322Z,99553.97
2024-01-11T00:13:45.857Z,99544.97
2024-01-11T00:16:15.078Z,99548.47
2024-01-11T00:18:46.285Z,99541.78
2024-01-11T00:21:15.602Z,99537.44
2024-01-11T00:23:44.795Z,99545.56
2024-01-11T00:26:14.564Z,99534.38
2024-01-11T00:28:43.952Z,99535.34
2024-01-11T00:31:13.974Z,99527.28
2024-01-11T00:33:43.413Z,99520.03
2024-01-11T00:36:19.075Z,99525.97
2024-01-11T00:38:48.333Z,99520.03
2024-01-11T00:41:18.285Z,99519.50
2024-01-11T00:43:47.706Z,99529.00
2024-01-11T00:46:16.932Z,99524.09
2024-01-11T00:48:47.464Z,99518.66
2024-01-11T00:51:17.327Z,99524.50
2024-01-11T00:53:46.607Z,99515.34
2024-01-11T00:56:20.316Z,99516.81
2024-01-11T00:58:49.598Z,99535.69
2024-01-11T01:01:18.880Z,99515.50
2024-01-11T01:03:48.264Z,99524.13
2024-01-11T01:06:17.677Z,99515.91
2024-01-11T01:08:47.050Z,99520.16
2024-01-11T01:11:16.266Z,99513.59
2024-01-11T01:13:45.546Z,99518.69
2024-01-11T01:16:16.036Z,99511.69
2024-01-11T01:18:45.424Z,99510.81
2024-01-11T01:21:14.668Z,99515.31
2024-01-11T01:23:43.981Z,99509.94
2024-01-11T01:26:13.309Z,99500.66
2024-01-11T01:28:43.708Z,99491.63
2024-01-11T01:31:13.585Z,99501.03
2024-01-11T01:33:43.211Z,99492.69
2024-01-11T01:36:13.432Z,99492.00
2024-01-11T01:38:42.693Z,99506.50
2024-01-11T01:41:16.907Z,99496.13
2024-01-11T01:43:47.083Z,99501.81
2024-01-11T01:46:25.747Z,99491.63
2024-01-11T01:48:58.162Z,99490.91
2024-01-11T01:51:32.917Z,99486.78
2024-01-11T01:54:04.277Z,99475.22
2024-01-11T01:56:33.975Z,99477.78
2024-01-11T01:59:04.929Z,99468.63
2024-01-11T02:01:35.280Z,99473.72
2024-01-11T02:04:05.776Z,99464.50
2024-01-11T02:06:36.264Z,99463.56
2024-01-11T02:09:09.123Z,99467.56
2024-01-11T02:11:41.706Z,99451.47
2024-01-11T02:14:12.464Z,99444.34
2024-01-11T02:16:42.235Z,99449.44
2024-01-11T02:19:15.108Z,99448.50
2024-01-11T02:21:47.717Z,99443.53
2024-01-11T02:24:17.021Z,99433.41
2024-01-11T02:27:03.270Z,99438.59
2024-01-11T02:29:33.292Z,99437.88
2024-01-11T02:32:05.840Z,99426.84
2024-01-11T02:34:36.565Z,99431.91
2024-01-11T02:37:07.354Z,99435.34
2024-01-11T02:39:37.679Z,99424.63
2024-01-11T02:42:06.931Z,99418.78
2024-01-11T02:44:36.469Z,99420.31
2024-01-11T02:47:05.815Z,99414.41
2024-01-11T02:49:35.393Z,99405.44
2024-01-11T02:52:06.135Z,99394.63
2024-01-11T02:54:35.352Z,99388.38
2024-01-11T02:57:05.863Z,99392.75
2024-01-11T02:59:35.133Z,99393.75
2024-01-11T03:02:05.339Z,99392.19
2024-01-11T03:04:34.599Z,99381.06
2024-01-11T03:07:03.988Z,99385.13
2024-01-11T03:09:33.206Z,99380.00
2024-01-11T03:12:03.297Z,99371.34
2024-01-11T03:14:32.540Z,99371.09
2024-01-11T03:17:02.665Z,99376.09
2024-01-11T03:19:32.115Z,99372.88
2024-01-11T03:22:05.802Z,99381.94
2024-01-11T03:24:40.454Z,99378.50
2024-01-11T03:27:11.268Z,99378.91
2024-01-11T03:29:40.609Z,99387.41
2024-01-11T03:32:09.903Z,99380.81
2024-01-11T03:34:39.272Z,99373.38
2024-01-11T03:37:08.555Z,99385.19
2024-01-11T03:39:37.752Z,99381.66
2024-01-11T03:42:07.567Z,99368.81
2024-01-11T03:44:38.619Z,99371.34
2024-01-11T03:47:07.968Z,99366.53
2024-01-11T03:49:37.195Z,99364.75
2024-01-11T03:52:07.630Z,99373.81
2024-01-11T03:54:37.176Z,99368.75
2024-01-11T03:57:07.668Z,99367.66
2024-01-11T03:59:36.948Z,99360.13
2024-01-11T04:02:08.596Z,99363.16
2024-01-11T04:04:37.954Z,99359.63
2024-01-11T04:07:07.119Z,99367.97
2024-01-11T04:09:39.627Z,99353.66
2024-01-11T04:12:09.590Z,99362.81
2024-01-11T04:14:41.453Z,99367.25
2024-01-11T04:17:10.759Z,99360.56
2024-01-11T04:19:40.974Z,99360.69
2024-01-11T04:22:10.249Z,99369.66
2024-01-11T04:24:39.445Z,99368.72
2024-01-11T04:27:08.589Z,99363.59
2024-01-11T04:29:37.837Z,99355.03
2024-01-11T04:32:07.107Z,99346.03
2024-01-11T04:34:36.316Z,99343.78
2024-01-11T04:37:05.760Z,99341.31
2024-01-11T04:39:34.942Z,99337.03
2024-01-11T04:42:04.534Z,99338.91
2024-01-11T04:44:33.830Z,99327.16
2024-01-11T04:47:03.141Z,99341.31
2024-01-11T04:49:32.346Z,99340.63
2024-01-11T04:52:02.222Z,99340.69
2024-01-11T04:54:31.476Z,99332.09
2024-01-11T04:57:01.145Z,99327.72
2024-01-11T04:59:30.796Z,99333.50
2024-01-11T05:02:00.005Z,99317.59
2024-01-11T05:04:31.058Z,99315.63
2024-01-11T05:07:00.278Z,99315.94
2024-01-11T05:09:29.460Z,99321.72
2024-01-11T05:11:59.120Z,99325.84
2024-01-11T05:14:28.334Z,99329.22
2024-01-11T05:16:57.668Z,99324.06
2024-01-11T05:19:27.046Z,99320.81
2024-01-11T05:21:56.248Z,99341.00
2024-01-11T05:24:25.455Z,99337.44
2024-01-11T05:26:54.769Z,99331.81
2024-01-11T05:29:24.050Z,99339.22
2024-01-11T05:31:53.296Z,99344.28
2024-01-11T05:34:22.589Z,99336.00
2024-01-11T05:36:51.932Z,99326.91
2024-01-11T05:39:21.162Z,99322.75
2024-01-11T05:41:50.420Z,99325.91
2024-01-11T05:44:19.627Z,99320.19
2024-01-11T05:46:48.925Z,99327.16
2024-01-11T05:49:18.211Z,99336.81
2024-01-11T05:51:47.468Z,99322.81
2024-01-11T05:54:16.650Z,99326.28
2024-01-11T05:56:46.687Z,99321.72
2024-01-11T05:59:15.879Z,99320.59
2024-01-11T06:01:45.264Z,99317.91
2024-01-11T06:04:14.464Z,99329.03
2024-01-11T06:06:44.028Z,99328.34
2024-01-11T06:09:13.385Z,99315.56
2024-01-11T06:11:43.427Z,99299.63
2024-01-11T06:14:12.659Z,99298.84
2024-01-11T06:16:42.204Z,99298.19
2024-01-11T06:19:11.436Z,99308.06
2024-01-11T06:21:40.661Z,99304.78
2024-01-11T06:24:09.828Z,99297.03
2024-01-11T06:26:40.165Z,99294.81
2024-01-11T06:29:09.415Z,99291.53
2024-01-11T06:31:38.585Z,99300.47
2024-01-11T06:34:07.759Z,99291.97
2024-01-11T06:36:37.058Z,99290.25
2024-01-11T06:39:06.394Z,99291.41
2024-01-11T06:41:35.658Z,99292.03
2024-01-11T06:44:05.255Z,99273.38
2024-01-11T06:46:37.181Z,99278.16
2024-01-11T06:49:06.745Z,99273.72
2024-01-11T06:51:36.055Z,99265.22
2024-01-11T06:54:05.299Z,99278.41
2024-01-11T06:56:34.644Z,99273.06
2024-01-11T06:59:03.953Z,99275.78
2024-01-11T07:01:33.430Z,99270.47
2024-01-11T07:04:02.790Z,99263.09
2024-01-11T07:06:32.117Z,99263.50
2024-01-11T07:09:01.307Z,99272.78
2024-01-11T07:11:30.629Z,99276.22
2024-01-11T07:14:00.366Z,99266.38
2024-01-11T07:16:29.612Z,99264.91
2024-01-11T07:18:58.930Z,99270.19
2024-01-11T07:21:32.453Z,99268.94
2024-01-11T07:24:01.956Z,99265.84
2024-01-11T07:26:31.267Z,99253.00
2024-01-11T07:29:00.883Z,99250.81
2024-01-11T07:31:30.680Z,99241.16
2024-01-11T07:34:00.854Z,99253.25
2024-01-11T07:36:30.235Z,99245.09
2024-01-11T07:38:59.437Z,99235.25
2024-01-11T07:41:28.673Z,99228.50
2024-01-11T07:43:59.862Z,99219.47
2024-01-11T07:46:36.261Z,99203.94
2024-01-11T07:49:11.691Z,99204.13
2024-01-11T07:51:40.918Z,99204.56
2024-01-11T07:54:10.092Z,99186.31
2024-01-11T07:56:39.689Z,99192.53
2024-01-11T07:59:13.995Z,99200.69
2024-01-11T08:01:44.110Z,99206.19
2024-01-11T08:04:13.459Z,99205.34
2024-01-11T08:06:42.882Z,99206.50
2024-01-11T08:09:14.688Z,99203.44
2024-01-11T08:11:47.137Z,99195.44
2024-01-11T08:14:19.838Z,99185.75
2024-01-11T08:16:49.099Z,99190.81
2024-01-11T08:19:18.414Z,99186.44
2024-01-11T08:21:47.620Z,99165.63
2024-01-11T08:24:16.844Z,99149.03
2024-01-11T08:26:46.159Z,99136.34
2024-01-11T08:29:15.678Z,99138.53
2024-01-11T08:31:44.987Z,99132.84
2024-01-11T08:34:14.442Z,99116.81
2024-01-11T08:36:43.800Z,99105.44
2024-01-11T08:39:14.413Z,99120.34
2024-01-11T08:41:43.804Z,99132.50
2024-01-11T08:44:13.139Z,99135.66
2024-01-11T08:46:42.566Z,99137.06
2024-01-11T08:49:11.875Z,99133.56
2024-01-11T08:51:41.284Z,99125.88
2024-01-11T08:54:12.504Z,99141.66
2024-01-11T08:56:42.631Z,99141.34
2024-01-11T08:59:11.884Z,99137.69
2024-01-11T09:01:45.031Z,99126.66
2024-01-11T09:04:19.394Z,99122.13
2024-01-11T09:06:48.672Z,99101.47
2024-01-11T09:09:18.266Z,99091.78
2024-01-11T09:11:47.616Z,99094.66
2024-01-11T09:14:17.001Z,99099.47
2024-01-11T09:16:47.183Z,99099.06
2024-01-11T09:19:16.591Z,99092.75
2024-01-11T09:21:45.770Z,99097.53
2024-01-11T09:24:16.796Z,99090.78
2024-01-11T09:26:46.100Z,99095.06
2024-01-11T09:29:15.365Z,99086.38
2024-01-11T09:31:45.080Z,99083.22
2024-01-11T09:34:14.577Z,99068.88
2024-01-11T09:36:43.892Z,99074.19
2024-01-11T09:39:16.060Z,99067.88
2024-01-11T09:41:59.633Z,99043.69
2024-01-11T09:44:31.593Z,99039.56
2024-01-11T09:47:04.084Z,99038.22
2024-01-11T09:49:37.115Z,99029.91
2024-01-11T09:52:09.600Z,99028.44
2024-01-11T09:54:41.484Z,99023.69
2024-01-11T09:57:11.792Z,99023.81
2024-01-11T09:59:44.129Z,99020.13
2024-01-11T10:02:13.732Z,99012.81
2024-01-11T10:04:44.494Z,99001.81
2024-01-11T10:07:16.394Z,98985.66
2024-01-11T10:09:45.989Z,98972.91
2024-01-11T10:12:15.384Z,98997.44
2024-01-11T10:14:44.741Z,99001.50
2024-01-11T10:17:19.239Z,98991.84
2024-01-11T10:19:51.630Z,98970.19
2024-01-11T10:22:23.021Z,98972.31
2024-01-11T10:25:14.196Z,98954.38
2024-01-11T10:27:45.780Z,98950.66
2024-01-11T10:30:18.433Z,98954.84
2024-01-11T10:32:49.715Z,98939.19
2024-01-11T10:35:19.425Z,98948.56
2024-01-11T10:37:55.882Z,98941.16
2024-01-11T10:40:27.011Z,98925.25
2024-01-11T10:43:01.223Z,98936.16
2024-01-11T10:45:40.076Z,98924.97
2024-01-11T10:48:16.379Z,98923.50
2024-01-11T10:50:49.344Z,98926.09
2024-01-11T10:53:40.233Z,98921.25
2024-01-11T10:56:11.151Z,98920.00
2024-01-11T10:58:45.242Z,98908.59
2024-01-11T11:01:15.691Z,98908.44
2024-01-11T11:03:47.353Z,98910.72
2024-01-11T11:06:23.774Z,98912.38
2024-01-11T11:08:54.636Z,98911.38
2024-01-11T11:11:25.056Z,98898.22
2024-01-11T11:13:55.760Z,98896.72
2024-01-11T11:16:25.954Z,98891.81
2024-01-11T11:18:57.068Z,98891.47
2024-01-11T11:21:26.358Z,98886.34
2024-01-11T11:23:57.894Z,98889.47
2024-01-11T11:26:29.511Z,98883.81
2024-01-11T11:28:59.460Z,98886.97
2024-01-11T11:31:56.261Z,98876.06
2024-01-11T11:34:47.936Z,98866.56
2024-01-11T11:37:25.310Z,98858.28
2024-01-11T11:39:54.562Z,98855.44
2024-01-11T11:42:24.401Z,98857.22
2024-01-11T11:44:53.914Z,98855.13
2024-01-11T11:47:24.847Z,98846.34
2024-01-11T11:50:12.959Z,98828.63
2024-01-11T11:52:45.488Z,98827.81
2024-01-11T11:55:15.381Z,98825.81
2024-01-11T11:57:46.367Z,98819.66
2024-01-11T12:00:17.518Z,98804.88
2024-01-11T12:02:48.959Z,98805.44
2024-01-11T12:05:21.970Z,98790.78
2024-01-11T12:07:53.349Z,98791.97
2024-01-11T12:10:22.576Z,98792.22
2024-01-11T12:12:52.030Z,98785.31
2024-01-11T12:15:21.365Z,98790.75
2024-01-11T12:17:50.585Z,98790.22
2024-01-11T12:20:22.594Z,98777.84
2024-01-11T12:22:52.039Z,98767.47
2024-01-11T12:25:23.137Z,98766.00
2024-01-11T12:27:53.206Z,98747.09
2024-01-11T12:30:29.242Z,98743.34
2024-01-11T12:32:59.017Z,98725.81
2024-01-11T12:35:29.140Z,98717.59
2024-01-11T12:38:12.355Z,98713.91
2024-01-11T12:40:41.804Z,98699.66
2024-01-11T12:43:13.593Z,98694.78
2024-01-11T12:45:43.117Z,98688.13
2024-01-11T12:48:16.308Z,98689.91
2024-01-11T12:50:45.676Z,98692.63
2024-01-11T12:53:19.673Z,98684.06
2024-01-11T12:55:57.553Z,98674.69
2024-01-11T12:58:27.903Z,98678.69
2024-01-11T13:00:58.541Z,98665.63
2024-01-11T13:03:28.914Z,98669.97
2024-01-11T13:05:58.626Z,98670.94
2024-01-11T13:08:28.808Z,98659.56
2024-01-11T13:10:58.213Z,98664.78
2024-01-11T13:13:29.436Z,98675.97
2024-01-11T13:15:59.489Z,98668.03
2024-01-11T13:18:28.668Z,98674.53
2024-01-11T13:20:58.805Z,98670.63
2024-01-11T13:23:28.013Z,98669.72
2024-01-11T13:25:57.209Z,98672.97
2024-01-11T13:28:28.086Z,98674.44
2024-01-11T13:30:58.270Z,98682.16
2024-01-11T13:33:27.627Z,98668.75
2024-01-11T13:35:56.938Z,98676.91
2024-01-11T13:38:26.434Z,98674.19
2024-01-11T13:40:55.926Z,98674.19
2024-01-11T13:43:25.071Z,98676.38
2024-01-11T13:45:55.647Z,98673.16
2024-01-11T13:48:25.748Z,98664.09
2024-01-11T13:50:55.055Z,98664.81
2024-01-11T13:53:24.459Z,98666.69
2024-01-11T13:55:53.799Z,98658.28
2024-01-11T13:58:23.532Z,98660.47
2024-01-11T14:00:53.207Z,98657.63
2024-01-11T14:03:23.292Z,98645.97
2024-01-11T14:05:53.040Z,98653.72
2024-01-11T14:08:22.355Z,98648.56
2024-01-11T14:10:51.594Z,98638.25
2024-01-11T14:13:20.807Z,98641.50
2024-01-11T14:15:52.009Z,98635.00
2024-01-11T14:18:24.349Z,98633.38
2024-01-11T14:20:53.840Z,98634.72
2024-01-11T14:23:23.144Z,98623.63
2024-01-11T14:25:52.484Z,98616.72
2024-01-11T14:28:23.888Z,98608.44
2024-01-11T14:30:54.937Z,98606.97
2024-01-11T14:33:24.354Z,98606.03
2024-01-11T14:35:54.300Z,98611.28
2024-01-11T14:38:24.784Z,98598.53
2024-01-11T14:40:53.989Z,98607.47
2024-01-11T14:43:23.213Z,98597.19
2024-01-11T14:45:54.918Z,98592.81
2024-01-11T14:48:25.759Z,98601.03
2024-01-11T14:50:56.264Z,98610.25
2024-01-11T14:53:25.603Z,98622.97
2024-01-11T14:55:55.079Z,98610.19
2024-01-11T14:58:25.229Z,98612.31
2024-01-11T15:00:54.513Z,98606.28
2024-01-11T15:03:23.797Z,98608.97
2024-01-11T15:05:54.347Z,98605.66
2024-01-11T15:08:23.791Z,98594.13
2024-01-11T15:10:53.005Z,98586.19
2024-01-11T15:13:22.548Z,98591.13
2024-01-11T15:15:51.762Z,98590.69
2024-01-11T15:18:21.086Z,98592.03
2024-01-11T15:20:50.453Z,98595.28
2024-01-11T15:23:20.501Z,98597.72
2024-01-11T15:25:49.752Z,98606.28
2024-01-11T15:28:19.216Z,98600.97
2024-01-11T15:30:48.418Z,98614.50
2024-01-11T15:33:17.845Z,98623.59
2024-01-11T15:35:49.589Z,98613.00
2024-01-11T15:38:18.955Z,98605.06
2024-01-11T15:40:48.654Z,98613.22
2024-01-11T15:43:17.918Z,98606.13
2024-01-11T15:45:47.067Z,98606.78
2024-01-11T15:48:16.780Z,98591.81
2024-01-11T15:50:47.056Z,98601.19
2024-01-11T15:53:16.374Z,98593.59
2024-01-11T15:55:45.604Z,98599.56
2024-01-11T15:58:14.722Z,98607.16
2024-01-11T16:00:45.611Z,98584.56
2024-01-11T16:03:14.931Z,98586.38
2024-01-11T16:05:44.931Z,98599.78
2024-01-11T16:08:14.299Z,98588.13
2024-01-11T16:10:43.532Z,98579.72
2024-01-11T16:13:13.186Z,98581.34
2024-01-11T16:15:43.171Z,98583.78
2024-01-11T16:18:12.679Z,98570.34
2024-01-11T16:20:42.099Z,98580.66
2024-01-11T16:23:12.193Z,98561.94
2024-01-11T16:25:41.343Z,98559.22
2024-01-11T16:28:11.377Z,98557.28
2024-01-11T16:30:40.714Z,98567.09
2024-01-11T16:33:10.970Z,98563.56
2024-01-11T16:35:45.389Z,98558.38
2024-01-11T16:38:23.319Z,98560.97
2024-01-11T16:40:53.365Z,98548.88
2024-01-11T16:43:25.256Z,98550.34
2024-01-11T16:45:56.654Z,98537.13
2024-01-11T16:48:28.334Z,98537.66
2024-01-11T16:50:57.967Z,98531.69
2024-01-11T16:53:28.297Z,98535.88
2024-01-11T16:56:07.040Z,98528.47
2024-01-11T16:58:36.251Z,98531.72
2024-01-11T17:01:05.480Z,98539.34
2024-01-11T17:03:36.075Z,98543.03
2024-01-11T17:06:06.675Z,98541.25
2024-01-11T17:08:36.171Z,98550.78
2024-01-11T17:11:05.377Z,98547.09
2024-01-11T17:13:34.621Z,98540.97
2024-01-11T17:18:37.397Z,98523.03
2024-01-11T17:21:08.650Z,98528.19
2024-01-11T17:23:37.947Z,98521.25
2024-01-11T17:26:08.110Z,98533.66
2024-01-11T17:28:37.379Z,98536.38
2024-01-11T17:31:06.647Z,98530.09
2024-01-11T17:33:36.331Z,98534.31
2024-01-11T17:36:06.580Z,98526.56
2024-01-11T17:38:35.930Z,98516.09
2024-01-11T17:41:05.522Z,98528.53
2024-01-11T17:43:36.630Z,98521.31
2024-01-11T17:46:06.410Z,98528.59
2024-01-11T17:48:35.941Z,98542.19
2024-01-11T17:51:05.691Z,98530.31
2024-01-11T17:53:35.931Z,98527.53
2024-01-11T17:56:05.492Z,98531.38
2024-01-11T17:58:34.654Z,98524.53
2024-01-11T18:01:04.080Z,98527.56
2024-01-11T18:03:33.803Z,98517.63
2024-01-11T18:06:03.066Z,98511.06
2024-01-11T18:08:32.343Z,98500.66
2024-01-11T18:11:02.416Z,98511.28
2024-01-11T18:13:31.804Z,98515.41
2024-01-11T18:16:00.994Z,98516.94
2024-01-11T18:18:31.352Z,98505.16
2024-01-11T18:21:00.979Z,98506.50
2024-01-11T18:23:30.255Z,98516.88
2024-01-11T18:25:59.494Z,98520.19
2024-01-11T18:28:29.613Z,98519.97
2024-01-11T18:30:59.861Z,98526.34
2024-01-11T18:33:29.113Z,98512.69
2024-01-11T18:35:58.408Z,98522.06
2024-01-11T18:38:27.636Z,98524.28
2024-01-11T18:40:57.029Z,98517.91
2024-01-11T18:43:26.226Z,98523.63
2024-01-11T18:45:55.475Z,98516.34
2024-01-11T18:48:24.921Z,98508.22
2024-01-11T18:50:54.731Z,98503.28
2024-01-11T18:53:23.987Z,98497.84
2024-01-11T18:55:57.770Z,98501.25
2024-01-11T18:58:27.602Z,98513.00
2024-01-11T19:00:56.902Z,98520.22
2024-01-11T19:03:26.362Z,98520.53
2024-01-11T19:05:55.637Z,98526.78
2024-01-11T19:08:26.366Z,98535.50
2024-01-11T19:10:56.222Z,98539.59
2024-01-11T19:13:26.441Z,98541.63
2024-01-11T19:15:56.201Z,98548.69
2024-01-11T19:18:25.735Z,98551.25
2024-01-11T19:20:56.184Z,98549.63
2024-01-11T19:23:28.694Z,98556.41
2024-01-11T19:25:58.874Z,98561.00
2024-01-11T19:28:28.255Z,98563.22
2024-01-11T19:30:58.012Z,98562.94
2024-01-11T19:33:29.365Z,98565.22
2024-01-11T19:35:58.896Z,98573.38
2024-01-11T19:38:28.374Z,98578.91
2024-01-11T19:40:57.753Z,98580.00
2024-01-11T19:43:26.977Z,98578.91
2024-01-11T19:45:57.019Z,98572.38
2024-01-11T19:48:27.880Z,98583.09
2024-01-11T19:50:57.555Z,98590.56
2024-01-11T19:53:27.056Z,98591.09
2024-01-11T19:55:56.440Z,98598.00
2024-01-11T19:58:26.019Z,98602.75
2024-01-11T20:00:55.377Z,98607.09
2024-01-11T20:03:24.863Z,98609.13
2024-01-11T20:05:55.724Z,98606.84
2024-01-11T20:08:25.941Z,98594.91
2024-01-11T20:10:58.149Z,98593.84
2024-01-11T20:13:27.447Z,98598.81
2024-01-11T20:15:57.002Z,98595.44
2024-01-11T20:18:28.750Z,98594.34
2024-01-11T20:20:59.427Z,98603.84
2024-01-11T20:23:28.914Z,98604.91
2024-01-11T20:26:01.586Z,98605.06
2024-01-11T20:28:32.442Z,98599.94
2024-01-11T20:31:03.201Z,98602.50
2024-01-11T20:33:33.533Z,98602.22
2024-01-11T20:36:07.035Z,98606.53
2024-01-11T20:38:38.789Z,98596.41
2024-01-11T20:41:09.025Z,98589.47
2024-01-11T20:43:40.659Z,98588.69
2024-01-11T20:46:10.627Z,98585.44
2024-01-11T20:48:46.698Z,98585.00
2024-01-11T20:51:19.147Z,98591.25
2024-01-11T20:53:59.426Z,98586.50
2024-01-11T20:56:31.996Z,98587.56
2024-01-11T20:59:02.910Z,98588.00
2024-01-11T21:01:33.415Z,98590.00
2024-01-11T21:04:04.590Z,98585.81
2024-01-11T21:06:36.376Z,98583.41
2024-01-11T21:09:07.527Z,98591.38
2024-01-11T21:11:37.478Z,98590.00
2024-01-11T21:14:06.733Z,98588.66
2024-01-11T21:16:38.124Z,98586.09
2024-01-11T21:19:11.420Z,98583.25
2024-01-11T21:21:41.984Z,98596.75
2024-01-11T21:24:12.445Z,98597.88
2024-01-11T21:26:44.481Z,98590.53
2024-01-11T21:29:13.894Z,98589.72
2024-01-11T21:31:46.476Z,98599.47
2024-01-11T21:34:17.785Z,98600.53
2024-01-11T21:36:47.644Z,98605.28
2024-01-11T21:39:19.627Z,98615.56
2024-01-11T21:41:50.419Z,98608.53
2024-01-11T21:44:20.131Z,98609.22
2024-01-11T21:46:56.613Z,98615.56
2024-01-11T21:49:28.474Z,98619.78
2024-01-11T21:51:58.515Z,98626.81
2024-01-11T21:54:27.742Z,98628.94
2024-01-11T21:56:58.364Z,98626.66
2024-01-11T21:59:27.740Z,98630.28
2024-01-11T22:01:56.894Z,98627.59
2024-01-11T22:04:26.217Z,98628.81
2024-01-11T22:06:56.386Z,98629.50
2024-01-11T22:09:25.862Z,98637.34
2024-01-11T22:11:55.095Z,98630.69
2024-01-11T22:14:24.425Z,98628.13
2024-01-11T22:16:53.649Z,98637.09
2024-01-11T22:19:23.978Z,98642.50
2024-01-11T22:21:53.279Z,98667.09
2024-01-11T22:24:22.434Z,98662.31
2024-01-11T22:26:51.743Z,98665.16
2024-01-11T22:29:21.032Z,98657.59
2024-01-11T22:31:50.196Z,98671.16
2024-01-11T22:34:19.596Z,98683.84
2024-01-11T22:36:48.905Z,98685.97
2024-01-11T22:39:18.615Z,98687.88
2024-01-11T22:41:48.008Z,98689.16
2024-01-11T22:44:18.584Z,98688.19
2024-01-11T22:46:47.973Z,98684.66
2024-01-11T22:49:17.210Z,98691.63
2024-01-11T22:51:46.426Z,98682.03
2024-01-11T22:54:15.907Z,98692.47
2024-01-11T22:56:45.105Z,98690.91
2024-01-11T22:59:14.349Z,98692.13
2024-01-11T23:01:44.007Z,98682.53
2024-01-11T23:04:16.564Z,98684.56
2024-01-11T23:06:45.839Z,98696.94
2024-01-11T23:09:15.120Z,98694.78
2024-01-11T23:11:44.372Z,98699.38
2024-01-11T23:14:14.283Z,98697.09
2024-01-11T23:16:43.540Z,98700.25
2024-01-11T23:19:13.071Z,98705.38
2024-01-11T23:21:42.482Z,98689.94
2024-01-11T23:24:12.469Z,98696.72
2024-01-11T23:26:41.755Z,98695.78
2024-01-11T23:29:11.456Z,98690.75
2024-01-11T23:31:40.697Z,98695.91
2024-01-11T23:34:10.084Z,98694.00
2024-01-11T23:36:39.358Z,98686.28
2024-01-11T23:39:09.291Z,98685.84
2024-01-11T23:41:38.639Z,98683.13
2024-01-11T23:44:08.079Z,98685.72
2024-01-11T23:46:38.474Z,98683.69
2024-01-11T23:49:09.906Z,98690.72
2024-01-11T23:51:40.228Z,98689.38
2024-01-11T23:54:09.585Z,98676.63
2024-01-11T23:56:43.092Z,98688.75
2024-01-11T23:59:12.492Z,98688.97
